createdAt,value
2019-05-26T00:00:44.769Z,12.51
2019-05-26T00:03:13.408Z,12.47
2019-05-26T00:05:42.041Z,12.47
2019-05-26T00:08:10.698Z,12.39
2019-05-26T00:10:39.330Z,12.38
2019-05-26T00:13:07.832Z,12.37
2019-05-26T00:15:36.508Z,12.32
2019-05-26T00:18:05.323Z,12.29
2019-05-26T00:20:33.964Z,12.31
2019-05-26T00:23:02.566Z,12.23
2019-05-26T00:25:31.193Z,12.18
2019-05-26T00:27:59.841Z,12.23
2019-05-26T00:30:28.533Z,12.15
2019-05-26T00:32:57.217Z,12.14
2019-05-26T00:35:25.791Z,12.07
2019-05-26T00:37:54.468Z,11.98
2019-05-26T00:40:23.201Z,11.93
2019-05-26T00:42:51.791Z,11.91
2019-05-26T00:45:20.633Z,11.94
2019-05-26T00:47:49.284Z,11.94
2019-05-26T00:50:18.148Z,11.98
2019-05-26T00:52:46.779Z,11.99
2019-05-26T00:55:15.528Z,11.96
2019-05-26T00:57:44.125Z,11.95
2019-05-26T01:00:13.160Z,12.05
2019-05-26T01:02:41.795Z,12.13
2019-05-26T01:05:11.201Z,12.18
2019-05-26T01:07:39.788Z,12.18
2019-05-26T01:10:10.245Z,12.10
2019-05-26T01:12:38.922Z,12.10
2019-05-26T01:15:08.581Z,12.06
2019-05-26T01:17:38.210Z,12.05
2019-05-26T01:20:07.196Z,12.00
2019-05-26T01:22:35.841Z,11.95
2019-05-26T01:25:07.086Z,11.89
2019-05-26T01:27:35.739Z,11.87
2019-05-26T01:30:07.100Z,11.83
2019-05-26T01:32:35.810Z,11.76
2019-05-26T01:35:07.830Z,11.76
2019-05-26T01:37:38.440Z,11.67
2019-05-26T01:40:07.930Z,11.49
2019-05-26T01:42:36.586Z,11.46
2019-05-26T01:45:07.096Z,11.33
2019-05-26T01:47:35.717Z,11.42
2019-05-26T01:50:07.101Z,11.37
2019-05-26T01:52:35.737Z,11.37
2019-05-26T01:55:08.156Z,11.26
2019-05-26T01:57:36.924Z,11.19
2019-05-26T02:00:07.077Z,11.19
2019-05-26T02:02:35.751Z,11.19
2019-05-26T02:05:05.924Z,11.13
2019-05-26T02:07:34.650Z,11.06
2019-05-26T02:10:04.574Z,11.13
2019-05-26T02:12:33.168Z,11.21
2019-05-26T02:15:01.816Z,11.23
2019-05-26T02:17:30.458Z,11.27
2019-05-26T02:19:59.937Z,11.22
2019-05-26T02:22:28.613Z,11.16
2019-05-26T02:24:57.269Z,11.03
2019-05-26T02:27:25.844Z,10.96
2019-05-26T02:29:54.458Z,10.91
2019-05-26T02:32:22.944Z,10.88
2019-05-26T02:34:51.557Z,10.87
2019-05-26T02:37:20.196Z,10.85
2019-05-26T02:39:48.790Z,10.79
2019-05-26T02:42:17.475Z,10.82
2019-05-26T02:44:46.126Z,10.77
2019-05-26T02:47:14.768Z,10.77
2019-05-26T02:49:43.475Z,10.79
2019-05-26T02:52:12.129Z,10.83
2019-05-26T02:54:40.763Z,10.83
2019-05-26T02:57:09.315Z,10.86
2019-05-26T02:59:37.963Z,10.92
2019-05-26T03:02:06.594Z,10.93
2019-05-26T03:04:35.265Z,11.00
2019-05-26T03:07:04.200Z,10.99
2019-05-26T03:09:34.408Z,11.02
2019-05-26T03:12:04.101Z,11.12
2019-05-26T03:14:34.921Z,11.62
2019-05-26T03:17:03.766Z,12.23
2019-05-26T03:19:35.071Z,13.00
2019-05-26T03:22:05.089Z,13.73
2019-05-26T03:24:34.014Z,14.28
2019-05-26T03:27:02.857Z,14.82
2019-05-26T03:29:31.362Z,15.38
2019-05-26T03:31:59.966Z,15.88
2019-05-26T03:34:28.583Z,16.60
2019-05-26T03:36:57.188Z,17.02
2019-05-26T03:39:42.688Z,16.89
2019-05-26T03:41:56.359Z,17.06
2019-05-26T03:44:24.981Z,17.65
2019-05-26T03:46:53.541Z,18.30
2019-05-26T03:49:22.143Z,19.31
2019-05-26T03:51:50.798Z,20.08
2019-05-26T03:54:19.431Z,20.74
2019-05-26T03:56:48.103Z,21.06
2019-05-26T03:59:16.667Z,20.94
2019-05-26T04:01:45.250Z,21.37
2019-05-26T04:04:13.845Z,21.37
2019-05-26T04:06:42.478Z,22.00
2019-05-26T04:09:11.045Z,22.11
2019-05-26T04:11:39.792Z,21.80
2019-05-26T04:14:08.354Z,21.97
2019-05-26T04:16:36.919Z,22.42
2019-05-26T04:19:05.581Z,22.64
2019-05-26T04:21:34.958Z,23.54
2019-05-26T04:24:03.536Z,23.90
2019-05-26T04:26:32.064Z,24.35
2019-05-26T04:29:00.624Z,24.76
2019-05-26T04:31:29.272Z,25.07
2019-05-26T04:33:57.908Z,24.64
2019-05-26T04:36:26.544Z,25.17
2019-05-26T04:38:55.117Z,24.90
2019-05-26T04:41:23.783Z,24.90
2019-05-26T04:43:52.338Z,25.39
2019-05-26T04:46:20.923Z,24.92
2019-05-26T04:48:49.506Z,25.55
2019-05-26T04:51:18.132Z,25.08
2019-05-26T04:53:46.701Z,25.06
2019-05-26T04:56:15.369Z,25.06
2019-05-26T04:58:43.859Z,25.34
2019-05-26T05:01:12.428Z,25.48
2019-05-26T05:03:41.026Z,25.73
2019-05-26T05:06:09.663Z,25.93
2019-05-26T05:08:38.242Z,26.59
2019-05-26T05:11:06.763Z,26.85
2019-05-26T05:13:35.393Z,27.10
2019-05-26T05:16:04.031Z,27.48
2019-05-26T05:18:32.734Z,27.86
2019-05-26T05:21:01.296Z,27.32
2019-05-26T05:23:29.861Z,27.88
2019-05-26T05:25:58.541Z,28.39
2019-05-26T05:28:27.147Z,28.81
2019-05-26T05:30:55.771Z,28.81
2019-05-26T05:33:24.451Z,28.19
2019-05-26T05:35:53.083Z,26.31
2019-05-26T05:38:21.769Z,26.21
2019-05-26T05:40:59.410Z,26.13
2019-05-26T05:43:20.748Z,26.64
2019-05-26T05:45:49.384Z,26.38
2019-05-26T05:48:18.056Z,27.59
2019-05-26T05:50:46.683Z,28.63
2019-05-26T05:53:15.243Z,29.19
2019-05-26T05:55:43.846Z,29.45
2019-05-26T05:58:12.420Z,29.35
2019-05-26T06:00:41.051Z,29.94
2019-05-26T06:03:09.648Z,29.05
2019-05-26T06:05:38.536Z,29.42
2019-05-26T06:08:07.181Z,29.81
2019-05-26T06:10:35.720Z,29.32
2019-05-26T06:13:04.391Z,28.71
2019-05-26T06:15:33.043Z,28.22
2019-05-26T06:18:01.652Z,28.41
2019-05-26T06:20:30.155Z,29.13
2019-05-26T06:22:59.034Z,29.99
2019-05-26T06:25:27.819Z,30.20
2019-05-26T06:27:56.622Z,29.69
2019-05-26T06:30:26.814Z,29.63
2019-05-26T06:32:55.421Z,30.54
2019-05-26T06:35:24.235Z,30.79
2019-05-26T06:37:52.878Z,30.89
2019-05-26T06:40:21.555Z,31.17
2019-05-26T06:42:50.124Z,29.90
2019-05-26T06:45:21.436Z,29.58
2019-05-26T06:47:50.127Z,30.07
2019-05-26T06:50:19.172Z,30.24
2019-05-26T06:52:47.740Z,30.74
2019-05-26T06:55:16.417Z,30.54
2019-05-26T06:57:44.990Z,31.40
2019-05-26T07:00:14.236Z,31.73
2019-05-26T07:02:42.835Z,31.65
2019-05-26T07:05:11.576Z,30.79
2019-05-26T07:07:40.138Z,29.73
2019-05-26T07:10:09.923Z,29.79
2019-05-26T07:12:38.632Z,30.86
2019-05-26T07:15:08.391Z,30.40
2019-05-26T07:17:37.105Z,30.13
2019-05-26T07:20:09.133Z,28.80
2019-05-26T07:22:37.728Z,29.72
2019-05-26T07:25:08.621Z,30.16
2019-05-26T07:27:37.171Z,30.78
2019-05-26T07:30:07.114Z,31.34
2019-05-26T07:32:35.716Z,31.83
2019-05-26T07:35:07.930Z,31.31
2019-05-26T07:37:36.488Z,32.15
2019-05-26T07:40:05.870Z,31.42
2019-05-26T07:42:34.611Z,29.19
2019-05-26T07:45:03.353Z,28.34
2019-05-26T07:47:32.002Z,28.37
2019-05-26T07:50:00.600Z,28.99
2019-05-26T07:52:29.158Z,30.28
2019-05-26T07:54:57.853Z,30.53
2019-05-26T07:57:26.491Z,31.39
2019-05-26T07:59:55.180Z,30.53
2019-05-26T08:02:23.862Z,28.48
2019-05-26T08:04:52.498Z,28.48
2019-05-26T08:07:23.206Z,29.88
2019-05-26T08:09:51.477Z,29.30
2019-05-26T08:12:26.973Z,30.54
2019-05-26T08:14:50.327Z,30.23
2019-05-26T08:17:18.963Z,29.66
2019-05-26T08:19:47.523Z,29.49
2019-05-26T08:22:16.136Z,29.30
2019-05-26T08:24:44.804Z,29.40
2019-05-26T08:27:13.349Z,29.36
2019-05-26T08:29:41.883Z,29.54
2019-05-26T08:32:10.479Z,29.42
2019-05-26T08:34:39.139Z,29.57
2019-05-26T08:37:07.791Z,29.43
2019-05-26T08:39:36.394Z,30.13
2019-05-26T08:42:05.125Z,30.64
2019-05-26T08:44:33.872Z,30.32
2019-05-26T08:47:02.440Z,30.83
2019-05-26T08:49:31.070Z,30.66
2019-05-26T08:51:59.673Z,30.62
2019-05-26T08:54:28.303Z,30.50
2019-05-26T08:56:56.883Z,29.65
2019-05-26T08:59:25.604Z,29.33
2019-05-26T09:01:54.205Z,28.80
2019-05-26T09:04:22.905Z,28.15
2019-05-26T09:06:51.502Z,28.69
2019-05-26T09:09:20.128Z,28.09
2019-05-26T09:11:48.699Z,27.80
2019-05-26T09:14:17.316Z,27.66
2019-05-26T09:16:45.952Z,27.66
2019-05-26T09:19:14.591Z,27.51
2019-05-26T09:21:43.194Z,26.71
2019-05-26T09:24:11.866Z,26.45
2019-05-26T09:26:40.428Z,25.90
2019-05-26T09:29:09.116Z,25.80
2019-05-26T09:31:37.673Z,26.35
2019-05-26T09:34:06.501Z,26.78
2019-05-26T09:36:35.089Z,26.53
2019-05-26T09:39:05.468Z,26.22
2019-05-26T09:41:34.110Z,26.16
2019-05-26T09:44:02.745Z,26.32
2019-05-26T09:46:31.390Z,26.33
2019-05-26T09:49:01.080Z,26.08
2019-05-26T09:51:29.742Z,26.04
2019-05-26T09:54:01.612Z,26.19
2019-05-26T09:56:28.690Z,26.30
2019-05-26T09:58:57.275Z,26.79
2019-05-26T10:01:25.945Z,26.65
2019-05-26T10:03:54.597Z,26.65
2019-05-26T10:06:23.146Z,26.50
2019-05-26T10:08:51.825Z,26.94
2019-05-26T10:11:20.518Z,27.39
2019-05-26T10:13:49.025Z,27.14
2019-05-26T10:16:17.672Z,27.14
2019-05-26T10:18:46.283Z,26.75
2019-05-26T10:21:14.948Z,26.82
2019-05-26T10:23:43.547Z,27.28
2019-05-26T10:26:12.228Z,27.73
2019-05-26T10:28:40.865Z,28.56
2019-05-26T10:31:09.435Z,29.00
2019-05-26T10:33:37.977Z,28.72
2019-05-26T10:36:06.555Z,28.27
2019-05-26T10:38:35.162Z,28.00
2019-05-26T10:41:03.848Z,27.06
2019-05-26T10:43:46.363Z,27.18
2019-05-26T10:46:02.708Z,26.87
2019-05-26T10:48:31.300Z,26.40
2019-05-26T10:50:59.865Z,26.18
2019-05-26T10:53:28.432Z,26.28
2019-05-26T10:55:57.039Z,26.18
2019-05-26T10:58:25.613Z,26.28
2019-05-26T11:00:54.180Z,26.14
2019-05-26T11:03:22.852Z,25.80
2019-05-26T11:05:51.412Z,25.80
2019-05-26T11:08:19.983Z,26.12
2019-05-26T11:10:48.591Z,26.22
2019-05-26T11:13:17.240Z,26.54
2019-05-26T11:15:46.465Z,26.20
2019-05-26T11:18:15.138Z,26.00
2019-05-26T11:20:43.977Z,26.18
2019-05-26T11:23:12.470Z,26.22
2019-05-26T11:25:41.350Z,26.22
2019-05-26T11:28:09.910Z,26.77
2019-05-26T11:30:38.543Z,27.13
2019-05-26T11:33:07.215Z,27.55
2019-05-26T11:35:35.780Z,27.26
2019-05-26T11:38:04.609Z,27.43
2019-05-26T11:40:33.216Z,27.68
2019-05-26T11:43:15.623Z,28.17
2019-05-26T11:45:32.026Z,28.35
2019-05-26T11:48:00.746Z,28.61
2019-05-26T11:50:29.305Z,28.81
2019-05-26T11:52:57.872Z,28.63
2019-05-26T11:55:27.886Z,28.56
2019-05-26T11:57:56.578Z,29.01
2019-05-26T12:00:25.416Z,29.22
2019-05-26T12:02:53.969Z,29.33
2019-05-26T12:05:22.569Z,29.52
2019-05-26T12:07:51.211Z,28.89
2019-05-26T12:10:20.139Z,28.09
2019-05-26T12:12:48.631Z,27.83
2019-05-26T12:15:17.982Z,28.22
2019-05-26T12:17:46.653Z,28.25
2019-05-26T12:20:15.677Z,28.36
2019-05-26T12:22:44.175Z,28.47
2019-05-26T12:25:13.151Z,28.94
2019-05-26T12:27:41.875Z,28.90
2019-05-26T12:30:11.255Z,28.97
2019-05-26T12:32:39.865Z,29.09
2019-05-26T12:35:09.694Z,29.54
2019-05-26T12:37:38.333Z,29.46
2019-05-26T12:40:07.901Z,29.17
2019-05-26T12:42:36.539Z,28.33
2019-05-26T12:45:09.621Z,26.88
2019-05-26T12:47:38.309Z,26.80
2019-05-26T12:50:08.355Z,26.75
2019-05-26T12:52:37.073Z,27.21
2019-05-26T12:55:09.431Z,26.67
2019-05-26T12:57:38.516Z,26.02
2019-05-26T13:00:08.414Z,25.90
2019-05-26T13:02:37.104Z,26.47
2019-05-26T13:05:07.374Z,27.04
2019-05-26T13:07:35.866Z,27.40
2019-05-26T13:10:07.479Z,27.14
2019-05-26T13:12:36.142Z,27.12
2019-05-26T13:15:07.787Z,27.83
2019-05-26T13:17:36.392Z,28.08
2019-05-26T13:20:07.294Z,27.80
2019-05-26T13:22:35.984Z,27.50
2019-05-26T13:25:07.662Z,26.92
2019-05-26T13:27:36.298Z,26.91
2019-05-26T13:30:09.747Z,26.93
2019-05-26T13:32:38.338Z,26.82
2019-05-26T13:35:11.315Z,27.47
2019-05-26T13:37:39.947Z,28.04
2019-05-26T13:40:09.197Z,28.59
2019-05-26T13:42:37.770Z,28.98
2019-05-26T13:45:21.795Z,29.37
2019-05-26T13:47:41.288Z,29.30
2019-05-26T13:50:10.327Z,29.27
2019-05-26T13:52:38.870Z,29.52
2019-05-26T13:55:10.934Z,28.25
2019-05-26T13:57:39.703Z,27.80
2019-05-26T14:00:14.337Z,28.12
2019-05-26T14:02:42.988Z,28.09
2019-05-26T14:05:12.719Z,27.85
2019-05-26T14:07:41.347Z,27.38
2019-05-26T14:10:10.324Z,27.39
2019-05-26T14:12:38.949Z,27.34
2019-05-26T14:15:09.263Z,26.70
2019-05-26T14:17:39.124Z,26.61
2019-05-26T14:20:10.033Z,26.55
2019-05-26T14:22:38.759Z,26.91
2019-05-26T14:25:08.815Z,26.64
2019-05-26T14:27:37.377Z,26.47
2019-05-26T14:30:07.013Z,26.08
2019-05-26T14:32:35.704Z,25.85
2019-05-26T14:35:05.640Z,25.85
2019-05-26T14:37:34.280Z,25.70
2019-05-26T14:40:02.879Z,26.02
2019-05-26T14:42:31.438Z,25.89
2019-05-26T14:45:03.679Z,26.22
2019-05-26T14:47:30.429Z,26.49
2019-05-26T14:49:59.055Z,26.55
2019-05-26T14:52:27.638Z,26.88
2019-05-26T14:54:56.353Z,26.61
2019-05-26T14:57:25.068Z,26.61
2019-05-26T14:59:53.642Z,26.60
2019-05-26T15:02:22.234Z,26.69
2019-05-26T15:04:50.803Z,26.82
2019-05-26T15:07:20.227Z,26.82
2019-05-26T15:09:48.758Z,26.49
2019-05-26T15:12:17.267Z,26.16
2019-05-26T15:14:45.888Z,25.98
2019-05-26T15:17:14.554Z,26.04
2019-05-26T15:19:43.192Z,25.97
2019-05-26T15:22:11.824Z,26.01
2019-05-26T15:24:40.461Z,26.01
2019-05-26T15:27:09.017Z,26.12
2019-05-26T15:29:37.650Z,26.62
2019-05-26T15:32:06.323Z,26.62
2019-05-26T15:34:34.823Z,26.65
2019-05-26T15:37:03.321Z,26.77
2019-05-26T15:39:32.016Z,26.73
2019-05-26T15:42:00.716Z,26.52
2019-05-26T15:44:29.209Z,26.35
2019-05-26T15:46:57.698Z,26.44
2019-05-26T15:49:26.339Z,26.02
2019-05-26T15:51:55.025Z,25.49
2019-05-26T15:54:23.573Z,25.21
2019-05-26T15:56:52.139Z,25.34
2019-05-26T15:59:20.817Z,25.40
2019-05-26T16:01:49.346Z,25.63
2019-05-26T16:04:17.981Z,25.75
2019-05-26T16:06:46.645Z,25.91
2019-05-26T16:09:15.145Z,26.14
2019-05-26T16:11:43.853Z,26.29
2019-05-26T16:14:12.534Z,26.46
2019-05-26T16:16:42.015Z,26.46
2019-05-26T16:19:10.688Z,26.55
2019-05-26T16:21:39.349Z,26.52
2019-05-26T16:24:07.981Z,26.43
2019-05-26T16:26:36.646Z,26.29
2019-05-26T16:29:05.802Z,26.18
2019-05-26T16:31:34.437Z,26.33
2019-05-26T16:34:03.082Z,26.25
2019-05-26T16:36:31.759Z,26.29
2019-05-26T16:39:00.322Z,26.14
2019-05-26T16:41:29.024Z,26.10
2019-05-26T16:43:57.560Z,26.18
2019-05-26T16:46:26.108Z,26.16
2019-05-26T16:48:55.142Z,26.14
2019-05-26T16:51:23.841Z,26.23
2019-05-26T16:53:52.321Z,26.27
2019-05-26T16:56:20.950Z,26.20
2019-05-26T16:58:49.613Z,26.31
2019-05-26T17:01:18.327Z,26.21
2019-05-26T17:03:46.828Z,26.23
2019-05-26T17:06:15.497Z,26.01
2019-05-26T17:08:44.123Z,26.00
2019-05-26T17:11:12.780Z,25.76
2019-05-26T17:13:41.488Z,25.48
2019-05-26T17:16:10.136Z,25.37
2019-05-26T17:18:39.155Z,25.15
2019-05-26T17:21:07.798Z,24.96
2019-05-26T17:23:36.440Z,24.72
2019-05-26T17:26:05.098Z,24.50
2019-05-26T17:28:33.725Z,24.46
2019-05-26T17:31:02.347Z,24.29
2019-05-26T17:33:30.913Z,24.26
2019-05-26T17:35:59.586Z,24.16
2019-05-26T17:38:28.230Z,24.00
2019-05-26T17:40:56.870Z,23.87
2019-05-26T17:43:25.462Z,23.74
2019-05-26T17:45:54.101Z,23.57
2019-05-26T17:48:22.748Z,23.47
2019-05-26T17:50:51.431Z,23.32
2019-05-26T17:53:19.930Z,23.27
2019-05-26T17:55:48.562Z,23.18
2019-05-26T17:58:17.180Z,23.12
2019-05-26T18:00:45.750Z,23.10
2019-05-26T18:03:14.372Z,22.90
2019-05-26T18:05:42.973Z,22.76
2019-05-26T18:08:11.536Z,22.66
2019-05-26T18:10:40.106Z,22.57
2019-05-26T18:13:08.767Z,22.56
2019-05-26T18:15:37.500Z,22.49
2019-05-26T18:18:06.056Z,22.30
2019-05-26T18:20:34.654Z,22.26
2019-05-26T18:23:03.212Z,22.19
2019-05-26T18:25:31.833Z,22.16
2019-05-26T18:28:00.395Z,22.16
2019-05-26T18:30:29.011Z,22.20
2019-05-26T18:32:57.640Z,22.23
2019-05-26T18:35:26.303Z,22.39
2019-05-26T18:37:54.930Z,22.43
2019-05-26T18:40:23.569Z,22.45
2019-05-26T18:42:52.097Z,22.64
2019-05-26T18:45:20.774Z,22.72
2019-05-26T18:48:01.890Z,22.81
2019-05-26T18:50:19.772Z,22.92
2019-05-26T18:52:48.467Z,22.91
2019-05-26T18:55:17.128Z,22.87
2019-05-26T18:57:45.757Z,22.74
2019-05-26T19:00:15.164Z,22.69
2019-05-26T19:02:43.885Z,22.71
2019-05-26T19:05:12.823Z,22.55
2019-05-26T19:07:41.466Z,22.45
2019-05-26T19:10:10.435Z,22.47
2019-05-26T19:12:39.083Z,22.54
2019-05-26T19:15:08.421Z,22.48
2019-05-26T19:17:37.093Z,22.39
2019-05-26T19:20:16.363Z,22.32
2019-05-26T19:22:37.909Z,22.25
2019-05-26T19:25:07.101Z,22.34
2019-05-26T19:27:35.597Z,22.38
2019-05-26T19:30:08.459Z,22.30
2019-05-26T19:32:37.099Z,22.21
2019-05-26T19:35:07.602Z,22.11
2019-05-26T19:37:36.160Z,21.98
2019-05-26T19:40:07.362Z,21.68
2019-05-26T19:42:36.095Z,21.50
2019-05-26T19:45:07.335Z,21.47
2019-05-26T19:47:35.890Z,21.42
2019-05-26T19:50:06.652Z,21.51
2019-05-26T19:52:35.286Z,21.55
2019-05-26T19:55:05.767Z,21.42
2019-05-26T19:57:34.439Z,21.28
2019-05-26T20:00:04.679Z,21.21
2019-05-26T20:02:33.180Z,21.02
2019-05-26T20:07:29.392Z,20.89
2019-05-26T20:09:58.116Z,20.81
2019-05-26T20:12:26.724Z,20.63
2019-05-26T20:14:55.360Z,20.61
2019-05-26T20:17:24.029Z,20.51
2019-05-26T20:19:52.624Z,20.43
2019-05-26T20:22:24.388Z,20.35
2019-05-26T20:24:51.462Z,20.33
2019-05-26T20:27:20.077Z,20.23
2019-05-26T20:29:48.716Z,20.10
2019-05-26T20:32:17.285Z,20.09
2019-05-26T20:34:45.889Z,20.05
2019-05-26T20:37:14.517Z,20.13
2019-05-26T20:39:43.091Z,20.01
2019-05-26T20:42:11.693Z,19.95
2019-05-26T20:44:40.269Z,19.89
2019-05-26T20:47:08.898Z,19.84
2019-05-26T20:49:45.350Z,19.86
2019-05-26T20:52:07.765Z,20.00
2019-05-26T20:54:36.415Z,20.06
2019-05-26T20:57:05.072Z,20.01
2019-05-26T20:59:33.638Z,20.04
2019-05-26T21:02:02.210Z,19.98
2019-05-26T21:04:30.946Z,19.99
2019-05-26T21:06:59.530Z,19.94
2019-05-26T21:09:28.035Z,19.92
2019-05-26T21:11:56.651Z,19.90
2019-05-26T21:14:25.322Z,19.90
2019-05-26T21:16:53.903Z,19.83
2019-05-26T21:19:22.587Z,19.78
2019-05-26T21:21:51.256Z,19.72
2019-05-26T21:24:20.016Z,19.70
2019-05-26T21:26:48.631Z,19.64
2019-05-26T21:29:17.281Z,19.62
2019-05-26T21:31:45.839Z,19.61
2019-05-26T21:34:14.554Z,19.59
2019-05-26T21:36:43.203Z,19.55
2019-05-26T21:39:11.844Z,19.57
2019-05-26T21:41:40.526Z,19.41
2019-05-26T21:44:09.038Z,19.31
2019-05-26T21:46:37.600Z,19.25
2019-05-26T21:49:06.306Z,19.15
2019-05-26T21:51:34.940Z,19.27
2019-05-26T21:54:03.552Z,19.15
2019-05-26T21:56:32.200Z,19.12
2019-05-26T21:59:00.757Z,18.98
2019-05-26T22:01:29.704Z,18.95
2019-05-26T22:03:58.343Z,18.90
2019-05-26T22:06:26.972Z,18.79
2019-05-26T22:08:55.587Z,18.76
2019-05-26T22:11:24.151Z,18.77
2019-05-26T22:13:52.794Z,18.76
2019-05-26T22:16:21.455Z,18.72
2019-05-26T22:18:50.102Z,18.71
2019-05-26T22:21:18.664Z,18.61
2019-05-26T22:23:47.271Z,18.65
2019-05-26T22:26:15.759Z,18.63
2019-05-26T22:28:44.252Z,18.60
2019-05-26T22:31:12.898Z,18.64
2019-05-26T22:33:41.579Z,18.51
2019-05-26T22:36:10.135Z,18.43
2019-05-26T22:38:38.692Z,18.48
2019-05-26T22:41:07.255Z,18.36
2019-05-26T22:43:35.891Z,18.37
2019-05-26T22:46:04.533Z,18.28
2019-05-26T22:48:33.055Z,18.27
2019-05-26T22:51:01.818Z,18.20
2019-05-26T22:53:30.512Z,18.19
2019-05-26T22:55:59.142Z,18.16
2019-05-26T22:58:27.632Z,18.02
2019-05-26T23:00:56.339Z,18.03
2019-05-26T23:03:25.085Z,18.02
2019-05-26T23:05:53.638Z,17.84
2019-05-26T23:08:22.201Z,17.83
2019-05-26T23:10:50.799Z,17.85
2019-05-26T23:13:19.466Z,17.79
2019-05-26T23:15:48.040Z,17.74
2019-05-26T23:18:16.634Z,17.71
2019-05-26T23:20:45.194Z,17.76
2019-05-26T23:23:13.828Z,17.74
2019-05-26T23:25:42.490Z,17.75
2019-05-26T23:28:11.062Z,17.79
2019-05-26T23:30:39.553Z,17.77
2019-05-26T23:33:08.253Z,17.68
2019-05-26T23:35:36.889Z,17.63
2019-05-26T23:38:05.567Z,17.61
2019-05-26T23:40:34.138Z,17.58
2019-05-26T23:43:02.674Z,17.52
2019-05-26T23:45:31.271Z,17.52
2019-05-26T23:47:59.907Z,17.54
2019-05-26T23:50:28.473Z,17.53
2019-05-26T23:52:57.060Z,17.37
2019-05-26T23:55:25.611Z,17.31
2019-05-26T23:57:54.171Z,17.25
